<?xml version="1.0" encoding="utf-8"?>
<gpx xmlns:xsi="http://www.w3.org/2001/XMLSchema-instance" xmlns:xsd="http://www.w3.org/2001/XMLSchema" version="1.1" creator="Shapelink.com" xmlns="http://www.topografix.com/GPX/1/1" xmlns:gpxtpx="http://www.garmin.com/xmlschemas/TrackPointExtension/v1">
  <metadata>
    <name>Cycling 20.23 km, 2020-06-01</name>
    <desc></desc>
    <author><name>Marian Moron</name></author> 
    <time>2020-06-01T10:05:47Z</time>
  </metadata>
  <trk>
    <name>Cycling 20.23 km, 2020-06-01</name>
    <trkseg>
      <trkpt lat="51.228505891547" lon="4.449282337294">
        <ele>0</ele>
        <time>2020-06-01T10:05:47Z</time>
      </trkpt>
      <trkpt lat="51.228556350585" lon="4.449268171883">
        <ele>0</ele>
        <time>2020-06-01T10:05:50Z</time>
      </trkpt>
      <trkpt lat="51.228806717938" lon="4.448913114599">
        <ele>0</ele>
        <time>2020-06-01T10:06:07Z</time>
      </trkpt>
      <trkpt lat="51.228814680743" lon="4.448866595054">
        <ele>0</ele>
        <time>2020-06-01T10:06:09Z</time>
      </trkpt>
      <trkpt lat="51.228832198914" lon="4.448879419361">
        <ele>0</ele>
        <time>2020-06-01T10:06:11Z</time>
      </trkpt>
      <trkpt lat="51.228831779819" lon="4.448930465132">
        <ele>0</ele>
        <time>2020-06-01T10:06:13Z</time>
      </trkpt>
      <trkpt lat="51.228740165652" lon="4.449019564729">
        <ele>0</ele>
        <time>2020-06-01T10:06:19Z</time>
      </trkpt>
      <trkpt lat="51.228721390196" lon="4.448978493419">
        <ele>0</ele>
        <time>2020-06-01T10:06:21Z</time>
      </trkpt>
      <trkpt lat="51.228847286334" lon="4.448860392448">
        <ele>0</ele>
        <time>2020-06-01T10:06:29Z</time>
      </trkpt>
      <trkpt lat="51.228843514479" lon="4.448932812064">
        <ele>0</ele>
        <time>2020-06-01T10:06:32Z</time>
      </trkpt>
      <trkpt lat="51.228734801236" lon="4.449013948856">
        <ele>0</ele>
        <time>2020-06-01T10:06:37Z</time>
      </trkpt>
      <trkpt lat="51.228723988585" lon="4.448951419882">
        <ele>0</ele>
        <time>2020-06-01T10:06:39Z</time>
      </trkpt>
      <trkpt lat="51.229029257383" lon="4.448517908014">
        <ele>0</ele>
        <time>2020-06-01T10:07:03Z</time>
      </trkpt>
      <trkpt lat="51.228675541203" lon="4.447858336303">
        <ele>0</ele>
        <time>2020-06-01T10:07:19Z</time>
      </trkpt>
      <trkpt lat="51.228302462834" lon="4.447241428463">
        <ele>0</ele>
        <time>2020-06-01T10:07:33Z</time>
      </trkpt>
      <trkpt lat="51.228249070131" lon="4.447244362128">
        <ele>0</ele>
        <time>2020-06-01T10:07:35Z</time>
      </trkpt>
      <trkpt lat="51.227832070606" lon="4.447848445661">
        <ele>0</ele>
        <time>2020-06-01T10:07:52Z</time>
      </trkpt>
      <trkpt lat="51.227393445779" lon="4.448481530568">
        <ele>0</ele>
        <time>2020-06-01T10:08:06Z</time>
      </trkpt>
      <trkpt lat="51.227048362956" lon="4.449156189699">
        <ele>0</ele>
        <time>2020-06-01T10:08:22Z</time>
      </trkpt>
      <trkpt lat="51.226606469188" lon="4.449678801164">
        <ele>0</ele>
        <time>2020-06-01T10:08:40Z</time>
      </trkpt>
      <trkpt lat="51.226221907616" lon="4.450283219973">
        <ele>0</ele>
        <time>2020-06-01T10:08:55Z</time>
      </trkpt>
      <trkpt lat="51.225783450427" lon="4.450838856124">
        <ele>0</ele>
        <time>2020-06-01T10:09:10Z</time>
      </trkpt>
      <trkpt lat="51.225685801292" lon="4.450899624899">
        <ele>1.4</ele>
        <time>2020-06-01T10:09:13Z</time>
      </trkpt>
      <trkpt lat="51.225623188499" lon="4.450759814807">
        <ele>2</ele>
        <time>2020-06-01T10:09:17Z</time>
      </trkpt>
      <trkpt lat="51.226014623229" lon="4.450137207275">
        <ele>5.2</ele>
        <time>2020-06-01T10:09:36Z</time>
      </trkpt>
      <trkpt lat="51.226434053505" lon="4.449545361316">
        <ele>3.8</ele>
        <time>2020-06-01T10:09:49Z</time>
      </trkpt>
      <trkpt lat="51.226523069283" lon="4.449408568708">
        <ele>3.6</ele>
        <time>2020-06-01T10:09:52Z</time>
      </trkpt>
      <trkpt lat="51.226516279944" lon="4.449310165202">
        <ele>3.2</ele>
        <time>2020-06-01T10:09:54Z</time>
      </trkpt>
      <trkpt lat="51.226249819343" lon="4.448900206473">
        <ele>2.2</ele>
        <time>2020-06-01T10:10:04Z</time>
      </trkpt>
      <trkpt lat="51.225894510602" lon="4.449535722131">
        <ele>0.4</ele>
        <time>2020-06-01T10:10:18Z</time>
      </trkpt>
      <trkpt lat="51.225360248296" lon="4.449728673469">
        <ele>0</ele>
        <time>2020-06-01T10:10:33Z</time>
      </trkpt>
      <trkpt lat="51.224869320413" lon="4.450083227839">
        <ele>0</ele>
        <time>2020-06-01T10:10:47Z</time>
      </trkpt>
      <trkpt lat="51.224482244271" lon="4.450699800403">
        <ele>0</ele>
        <time>2020-06-01T10:11:00Z</time>
      </trkpt>
      <trkpt lat="51.224079913071" lon="4.451282677729">
        <ele>0</ele>
        <time>2020-06-01T10:11:16Z</time>
      </trkpt>
      <trkpt lat="51.223896265642" lon="4.451380410683">
        <ele>0</ele>
        <time>2020-06-01T10:11:21Z</time>
      </trkpt>
      <trkpt lat="51.223364434087" lon="4.451237080193">
        <ele>0</ele>
        <time>2020-06-01T10:11:35Z</time>
      </trkpt>
      <trkpt lat="51.222802511511" lon="4.45106382632">
        <ele>0</ele>
        <time>2020-06-01T10:11:50Z</time>
      </trkpt>
      <trkpt lat="51.222246707722" lon="4.451182178748">
        <ele>0</ele>
        <time>2020-06-01T10:12:04Z</time>
      </trkpt>
      <trkpt lat="51.221721916963" lon="4.45151980168">
        <ele>0</ele>
        <time>2020-06-01T10:12:19Z</time>
      </trkpt>
      <trkpt lat="51.221186984105" lon="4.451716273416">
        <ele>0</ele>
        <time>2020-06-01T10:12:42Z</time>
      </trkpt>
      <trkpt lat="51.220621876407" lon="4.451801098244">
        <ele>0</ele>
        <time>2020-06-01T10:12:57Z</time>
      </trkpt>
      <trkpt lat="51.22006003765" lon="4.451920037405">
        <ele>0</ele>
        <time>2020-06-01T10:13:11Z</time>
      </trkpt>
      <trkpt lat="51.219492499201" lon="4.451962114543">
        <ele>0</ele>
        <time>2020-06-01T10:13:24Z</time>
      </trkpt>
      <trkpt lat="51.21921262756" lon="4.452047609923">
        <ele>0</ele>
        <time>2020-06-01T10:13:30Z</time>
      </trkpt>
      <trkpt lat="51.219110452199" lon="4.452129081991">
        <ele>0</ele>
        <time>2020-06-01T10:13:32Z</time>
      </trkpt>
      <trkpt lat="51.219039038411" lon="4.452254726672">
        <ele>0</ele>
        <time>2020-06-01T10:13:34Z</time>
      </trkpt>
      <trkpt lat="51.219006600458" lon="4.452546752068">
        <ele>0</ele>
        <time>2020-06-01T10:13:38Z</time>
      </trkpt>
      <trkpt lat="51.219029650683" lon="4.45260861049">
        <ele>0</ele>
        <time>2020-06-01T10:13:40Z</time>
      </trkpt>
      <trkpt lat="51.219349420168" lon="4.453380332023">
        <ele>0</ele>
        <time>2020-06-01T10:13:52Z</time>
      </trkpt>
      <trkpt lat="51.219410691857" lon="4.453554256448">
        <ele>0</ele>
        <time>2020-06-01T10:13:55Z</time>
      </trkpt>
      <trkpt lat="51.219644043953" lon="4.454362187789">
        <ele>0</ele>
        <time>2020-06-01T10:14:09Z</time>
      </trkpt>
      <trkpt lat="51.219920227558" lon="4.455122426119">
        <ele>0</ele>
        <time>2020-06-01T10:14:26Z</time>
      </trkpt>
      <trkpt lat="51.220214935162" lon="4.455904122113">
        <ele>2.6</ele>
        <time>2020-06-01T10:14:44Z</time>
      </trkpt>
      <trkpt lat="51.220446107964" lon="4.456687745944">
        <ele>3.8</ele>
        <time>2020-06-01T10:14:59Z</time>
      </trkpt>
      <trkpt lat="51.220462620307" lon="4.45757656262">
        <ele>1.4</ele>
        <time>2020-06-01T10:15:14Z</time>
      </trkpt>
      <trkpt lat="51.220465051058" lon="4.458065814123">
        <ele>0</ele>
        <time>2020-06-01T10:15:22Z</time>
      </trkpt>
      <trkpt lat="51.220472678587" lon="4.458961001043">
        <ele>0</ele>
        <time>2020-06-01T10:15:36Z</time>
      </trkpt>
      <trkpt lat="51.22041040107" lon="4.45981788268">
        <ele>5</ele>
        <time>2020-06-01T10:15:53Z</time>
      </trkpt>
      <trkpt lat="51.220401264799" lon="4.460280060646">
        <ele>2</ele>
        <time>2020-06-01T10:16:00Z</time>
      </trkpt>
      <trkpt lat="51.22024695402" lon="4.461102241217">
        <ele>0</ele>
        <time>2020-06-01T10:16:17Z</time>
      </trkpt>
      <trkpt lat="51.219988456224" lon="4.461829790137">
        <ele>0</ele>
        <time>2020-06-01T10:16:32Z</time>
      </trkpt>
      <trkpt lat="51.220020475082" lon="4.462734951518">
        <ele>0</ele>
        <time>2020-06-01T10:16:48Z</time>
      </trkpt>
      <trkpt lat="51.220095073992" lon="4.46360231053">
        <ele>0</ele>
        <time>2020-06-01T10:17:03Z</time>
      </trkpt>
      <trkpt lat="51.220177635707" lon="4.464483499677">
        <ele>0</ele>
        <time>2020-06-01T10:17:17Z</time>
      </trkpt>
      <trkpt lat="51.220135726207" lon="4.465364353548">
        <ele>0</ele>
        <time>2020-06-01T10:17:31Z</time>
      </trkpt>
      <trkpt lat="51.220134385103" lon="4.465575074514">
        <ele>0</ele>
        <time>2020-06-01T10:17:34Z</time>
      </trkpt>
      <trkpt lat="51.220048889723" lon="4.466106235517">
        <ele>0</ele>
        <time>2020-06-01T10:17:43Z</time>
      </trkpt>
      <trkpt lat="51.219951156769" lon="4.466152503605">
        <ele>0</ele>
        <time>2020-06-01T10:17:47Z</time>
      </trkpt>
      <trkpt lat="51.219946546724" lon="4.467025059395">
        <ele>0</ele>
        <time>2020-06-01T10:18:01Z</time>
      </trkpt>
      <trkpt lat="51.219900110998" lon="4.467913205519">
        <ele>0</ele>
        <time>2020-06-01T10:18:16Z</time>
      </trkpt>
      <trkpt lat="51.219864404104" lon="4.468765644749">
        <ele>0</ele>
        <time>2020-06-01T10:18:30Z</time>
      </trkpt>
      <trkpt lat="51.219728701143" lon="4.469610624088">
        <ele>0</ele>
        <time>2020-06-01T10:18:44Z</time>
      </trkpt>
      <trkpt lat="51.219556872193" lon="4.470441186559">
        <ele>0</ele>
        <time>2020-06-01T10:18:59Z</time>
      </trkpt>
      <trkpt lat="51.219393592781" lon="4.471318352394">
        <ele>0</ele>
        <time>2020-06-01T10:19:15Z</time>
      </trkpt>
      <trkpt lat="51.219237270346" lon="4.472178586791">
        <ele>0</ele>
        <time>2020-06-01T10:19:31Z</time>
      </trkpt>
      <trkpt lat="51.21913132313" lon="4.473058351015">
        <ele>3.8</ele>
        <time>2020-06-01T10:19:47Z</time>
      </trkpt>
      <trkpt lat="51.218991848314" lon="4.473911041702">
        <ele>3.2</ele>
        <time>2020-06-01T10:20:02Z</time>
      </trkpt>
      <trkpt lat="51.218877519198" lon="4.474785860605">
        <ele>0.4</ele>
        <time>2020-06-01T10:20:18Z</time>
      </trkpt>
      <trkpt lat="51.218776684941" lon="4.475679119688">
        <ele>0.2</ele>
        <time>2020-06-01T10:20:35Z</time>
      </trkpt>
      <trkpt lat="51.218695799606" lon="4.476539186447">
        <ele>0.2</ele>
        <time>2020-06-01T10:20:49Z</time>
      </trkpt>
      <trkpt lat="51.218650034432" lon="4.477218623261">
        <ele>0</ele>
        <time>2020-06-01T10:21:02Z</time>
      </trkpt>
      <trkpt lat="51.218601084136" lon="4.477188448421">
        <ele>0</ele>
        <time>2020-06-01T10:21:05Z</time>
      </trkpt>
      <trkpt lat="51.218030947298" lon="4.477187358774">
        <ele>0</ele>
        <time>2020-06-01T10:21:20Z</time>
      </trkpt>
      <trkpt lat="51.217896250165" lon="4.477170678793">
        <ele>0</ele>
        <time>2020-06-01T10:21:23Z</time>
      </trkpt>
      <trkpt lat="51.217322844386" lon="4.477070934183">
        <ele>0</ele>
        <time>2020-06-01T10:21:36Z</time>
      </trkpt>
      <trkpt lat="51.217146740667" lon="4.476856441362">
        <ele>0</ele>
        <time>2020-06-01T10:21:42Z</time>
      </trkpt>
      <trkpt lat="51.217253693711" lon="4.47599997882">
        <ele>0</ele>
        <time>2020-06-01T10:21:58Z</time>
      </trkpt>
      <trkpt lat="51.217271798615" lon="4.475344178964">
        <ele>0</ele>
        <time>2020-06-01T10:22:09Z</time>
      </trkpt>
      <trkpt lat="51.217334914322" lon="4.474512023932">
        <ele>0</ele>
        <time>2020-06-01T10:22:21Z</time>
      </trkpt>
      <trkpt lat="51.217343380041" lon="4.474129557835">
        <ele>0</ele>
        <time>2020-06-01T10:22:26Z</time>
      </trkpt>
      <trkpt lat="51.217380260401" lon="4.473563276671">
        <ele>0</ele>
        <time>2020-06-01T10:22:33Z</time>
      </trkpt>
      <trkpt lat="51.217386965921" lon="4.473394800481">
        <ele>0</ele>
        <time>2020-06-01T10:22:35Z</time>
      </trkpt>
      <trkpt lat="51.217419990607" lon="4.473138733436">
        <ele>0</ele>
        <time>2020-06-01T10:22:38Z</time>
      </trkpt>
      <trkpt lat="51.217429629792" lon="4.472238768833">
        <ele>0</ele>
        <time>2020-06-01T10:22:50Z</time>
      </trkpt>
      <trkpt lat="51.217490314748" lon="4.471340229153">
        <ele>0</ele>
        <time>2020-06-01T10:23:03Z</time>
      </trkpt>
      <trkpt lat="51.217529709678" lon="4.470714604137">
        <ele>0</ele>
        <time>2020-06-01T10:23:13Z</time>
      </trkpt>
      <trkpt lat="51.217539767958" lon="4.470570519276">
        <ele>0</ele>
        <time>2020-06-01T10:23:15Z</time>
      </trkpt>
      <trkpt lat="51.217528955307" lon="4.470101803428">
        <ele>0</ele>
        <time>2020-06-01T10:23:21Z</time>
      </trkpt>
      <trkpt lat="51.217526943651" lon="4.469309797697">
        <ele>0</ele>
        <time>2020-06-01T10:23:32Z</time>
      </trkpt>
      <trkpt lat="51.217521746873" lon="4.468941664649">
        <ele>0</ele>
        <time>2020-06-01T10:23:38Z</time>
      </trkpt>
      <trkpt lat="51.217018413778" lon="4.469359334726">
        <ele>0</ele>
        <time>2020-06-01T10:23:52Z</time>
      </trkpt>
      <trkpt lat="51.216872065804" lon="4.469474082937">
        <ele>0</ele>
        <time>2020-06-01T10:23:56Z</time>
      </trkpt>
      <trkpt lat="51.216352304185" lon="4.469211645648">
        <ele>0</ele>
        <time>2020-06-01T10:24:08Z</time>
      </trkpt>
      <trkpt lat="51.215843858131" lon="4.468877962209">
        <ele>0</ele>
        <time>2020-06-01T10:24:23Z</time>
      </trkpt>
      <trkpt lat="51.215418476706" lon="4.468374545295">
        <ele>0</ele>
        <time>2020-06-01T10:24:38Z</time>
      </trkpt>
      <trkpt lat="51.214862253822" lon="4.468272202296">
        <ele>0</ele>
        <time>2020-06-01T10:24:53Z</time>
      </trkpt>
      <trkpt lat="51.214676510918" lon="4.46823247209">
        <ele>0</ele>
        <time>2020-06-01T10:24:57Z</time>
      </trkpt>
      <trkpt lat="51.214573748824" lon="4.46811261092">
        <ele>0</ele>
        <time>2020-06-01T10:25:00Z</time>
      </trkpt>
      <trkpt lat="51.214110732668" lon="4.46814027119">
        <ele>0</ele>
        <time>2020-06-01T10:25:17Z</time>
      </trkpt>
      <trkpt lat="51.213630533617" lon="4.468034575431">
        <ele>0</ele>
        <time>2020-06-01T10:25:30Z</time>
      </trkpt>
      <trkpt lat="51.213579487846" lon="4.467929969319">
        <ele>0</ele>
        <time>2020-06-01T10:25:32Z</time>
      </trkpt>
      <trkpt lat="51.213355020564" lon="4.467351450581">
        <ele>0</ele>
        <time>2020-06-01T10:25:43Z</time>
      </trkpt>
      <trkpt lat="51.21330674082" lon="4.467370728951">
        <ele>0</ele>
        <time>2020-06-01T10:25:46Z</time>
      </trkpt>
      <trkpt lat="51.2128138851" lon="4.467719667448">
        <ele>0</ele>
        <time>2020-06-01T10:25:59Z</time>
      </trkpt>
      <trkpt lat="51.212761246768" lon="4.467595615328">
        <ele>0</ele>
        <time>2020-06-01T10:26:01Z</time>
      </trkpt>
      <trkpt lat="51.212484392611" lon="4.467242737338">
        <ele>0</ele>
        <time>2020-06-01T10:26:11Z</time>
      </trkpt>
      <trkpt lat="51.212213238146" lon="4.466459951697">
        <ele>0</ele>
        <time>2020-06-01T10:26:27Z</time>
      </trkpt>
      <trkpt lat="51.21207041057" lon="4.465615307634">
        <ele>0</ele>
        <time>2020-06-01T10:26:44Z</time>
      </trkpt>
      <trkpt lat="51.212022969016" lon="4.465594017608">
        <ele>0</ele>
        <time>2020-06-01T10:26:45Z</time>
      </trkpt>
      <trkpt lat="51.21151636698" lon="4.465733743881">
        <ele>0</ele>
        <time>2020-06-01T10:26:59Z</time>
      </trkpt>
      <trkpt lat="51.211488287615" lon="4.465874392163">
        <ele>0</ele>
        <time>2020-06-01T10:27:01Z</time>
      </trkpt>
      <trkpt lat="51.211565904009" lon="4.466515775151">
        <ele>0</ele>
        <time>2020-06-01T10:27:14Z</time>
      </trkpt>
      <trkpt lat="51.211608316423" lon="4.466498759894">
        <ele>0</ele>
        <time>2020-06-01T10:27:16Z</time>
      </trkpt>
      <trkpt lat="51.211626253689" lon="4.466418796568">
        <ele>0</ele>
        <time>2020-06-01T10:27:18Z</time>
      </trkpt>
      <trkpt lat="51.211522653405" lon="4.465580355111">
        <ele>0</ele>
        <time>2020-06-01T10:27:32Z</time>
      </trkpt>
      <trkpt lat="51.21153815992" lon="4.464735124315">
        <ele>0</ele>
        <time>2020-06-01T10:27:47Z</time>
      </trkpt>
      <trkpt lat="51.211712419621" lon="4.463914201029">
        <ele>0</ele>
        <time>2020-06-01T10:28:01Z</time>
      </trkpt>
      <trkpt lat="51.21204358849" lon="4.463183634625">
        <ele>0</ele>
        <time>2020-06-01T10:28:19Z</time>
      </trkpt>
      <trkpt lat="51.212373332436" lon="4.462482907785">
        <ele>0</ele>
        <time>2020-06-01T10:28:34Z</time>
      </trkpt>
      <trkpt lat="51.212753870696" lon="4.461862563366">
        <ele>0</ele>
        <time>2020-06-01T10:28:49Z</time>
      </trkpt>
      <trkpt lat="51.213200877423" lon="4.461366438705">
        <ele>0</ele>
        <time>2020-06-01T10:29:01Z</time>
      </trkpt>
      <trkpt lat="51.213658445344" lon="4.460897639038">
        <ele>0</ele>
        <time>2020-06-01T10:29:16Z</time>
      </trkpt>
      <trkpt lat="51.214131855056" lon="4.460417942901">
        <ele>0</ele>
        <time>2020-06-01T10:29:29Z</time>
      </trkpt>
      <trkpt lat="51.214549525133" lon="4.460546102152">
        <ele>0</ele>
        <time>2020-06-01T10:29:44Z</time>
      </trkpt>
      <trkpt lat="51.21490852191" lon="4.461268454294">
        <ele>0</ele>
        <time>2020-06-01T10:29:59Z</time>
      </trkpt>
      <trkpt lat="51.215239104046" lon="4.461999188336">
        <ele>0</ele>
        <time>2020-06-01T10:30:13Z</time>
      </trkpt>
      <trkpt lat="51.215544791939" lon="4.46247494498">
        <ele>0</ele>
        <time>2020-06-01T10:30:24Z</time>
      </trkpt>
      <trkpt lat="51.215628946215" lon="4.462352485421">
        <ele>0</ele>
        <time>2020-06-01T10:30:26Z</time>
      </trkpt>
      <trkpt lat="51.215871937496" lon="4.461869520343">
        <ele>0</ele>
        <time>2020-06-01T10:30:34Z</time>
      </trkpt>
      <trkpt lat="51.216221714183" lon="4.461138534844">
        <ele>0</ele>
        <time>2020-06-01T10:30:47Z</time>
      </trkpt>
      <trkpt lat="51.216546428989" lon="4.460430012837">
        <ele>0</ele>
        <time>2020-06-01T10:30:59Z</time>
      </trkpt>
      <trkpt lat="51.21690257592" lon="4.459740433924">
        <ele>0</ele>
        <time>2020-06-01T10:31:12Z</time>
      </trkpt>
      <trkpt lat="51.217242378146" lon="4.459032414831">
        <ele>0</ele>
        <time>2020-06-01T10:31:25Z</time>
      </trkpt>
      <trkpt lat="51.217615540334" lon="4.458333112914">
        <ele>0</ele>
        <time>2020-06-01T10:31:37Z</time>
      </trkpt>
      <trkpt lat="51.217945200461" lon="4.457618220663">
        <ele>0</ele>
        <time>2020-06-01T10:31:51Z</time>
      </trkpt>
      <trkpt lat="51.218072186246" lon="4.456717753146">
        <ele>0</ele>
        <time>2020-06-01T10:32:09Z</time>
      </trkpt>
      <trkpt lat="51.218153323038" lon="4.45585408217">
        <ele>0</ele>
        <time>2020-06-01T10:32:22Z</time>
      </trkpt>
      <trkpt lat="51.218219959143" lon="4.454938694871">
        <ele>0</ele>
        <time>2020-06-01T10:32:36Z</time>
      </trkpt>
      <trkpt lat="51.218248792879" lon="4.454040322829">
        <ele>0</ele>
        <time>2020-06-01T10:32:48Z</time>
      </trkpt>
      <trkpt lat="51.218306879446" lon="4.453233816411">
        <ele>0</ele>
        <time>2020-06-01T10:32:58Z</time>
      </trkpt>
      <trkpt lat="51.218350716783" lon="4.453089480093">
        <ele>0</ele>
        <time>2020-06-01T10:33:00Z</time>
      </trkpt>
      <trkpt lat="51.218419364544" lon="4.452987556189">
        <ele>0</ele>
        <time>2020-06-01T10:33:02Z</time>
      </trkpt>
      <trkpt lat="51.218491532703" lon="4.452910694166">
        <ele>0</ele>
        <time>2020-06-01T10:33:04Z</time>
      </trkpt>
      <trkpt lat="51.218762770987" lon="4.452531329372">
        <ele>0</ele>
        <time>2020-06-01T10:33:15Z</time>
      </trkpt>
      <trkpt lat="51.218495304558" lon="4.451719877633">
        <ele>0</ele>
        <time>2020-06-01T10:33:31Z</time>
      </trkpt>
      <trkpt lat="51.218292546397" lon="4.450895433949">
        <ele>0</ele>
        <time>2020-06-01T10:33:45Z</time>
      </trkpt>
      <trkpt lat="51.218151395201" lon="4.450000330848">
        <ele>0</ele>
        <time>2020-06-01T10:33:56Z</time>
      </trkpt>
      <trkpt lat="51.218021308113" lon="4.44911168181">
        <ele>0</ele>
        <time>2020-06-01T10:34:05Z</time>
      </trkpt>
      <trkpt lat="51.217848724792" lon="4.448235689441">
        <ele>0</ele>
        <time>2020-06-01T10:34:15Z</time>
      </trkpt>
      <trkpt lat="51.217743448128" lon="4.447761860634">
        <ele>0</ele>
        <time>2020-06-01T10:34:21Z</time>
      </trkpt>
      <trkpt lat="51.217700113705" lon="4.447618530144">
        <ele>0</ele>
        <time>2020-06-01T10:34:23Z</time>
      </trkpt>
      <trkpt lat="51.217612103755" lon="4.447537393352">
        <ele>0</ele>
        <time>2020-06-01T10:34:25Z</time>
      </trkpt>
      <trkpt lat="51.217511856231" lon="4.447544350329">
        <ele>0</ele>
        <time>2020-06-01T10:34:27Z</time>
      </trkpt>
      <trkpt lat="51.217124025718" lon="4.447666893707">
        <ele>0</ele>
        <time>2020-06-01T10:34:35Z</time>
      </trkpt>
      <trkpt lat="51.217005086557" lon="4.447634539573">
        <ele>0</ele>
        <time>2020-06-01T10:34:37Z</time>
      </trkpt>
      <trkpt lat="51.216577944933" lon="4.447413592689">
        <ele>0</ele>
        <time>2020-06-01T10:34:44Z</time>
      </trkpt>
      <trkpt lat="51.215990960476" lon="4.447338323227">
        <ele>0</ele>
        <time>2020-06-01T10:34:53Z</time>
      </trkpt>
      <trkpt lat="51.215543953749" lon="4.447292138958">
        <ele>0</ele>
        <time>2020-06-01T10:35:01Z</time>
      </trkpt>
      <trkpt lat="51.215002566828" lon="4.447257018797">
        <ele>0</ele>
        <time>2020-06-01T10:35:18Z</time>
      </trkpt>
      <trkpt lat="51.214621441835" lon="4.446771036235">
        <ele>0</ele>
        <time>2020-06-01T10:35:36Z</time>
      </trkpt>
      <trkpt lat="51.214533683342" lon="4.446692497832">
        <ele>0</ele>
        <time>2020-06-01T10:35:38Z</time>
      </trkpt>
      <trkpt lat="51.213987854014" lon="4.446512622258">
        <ele>0</ele>
        <time>2020-06-01T10:35:49Z</time>
      </trkpt>
      <trkpt lat="51.213702031224" lon="4.446413883476">
        <ele>0.8</ele>
        <time>2020-06-01T10:35:55Z</time>
      </trkpt>
      <trkpt lat="51.213560628571" lon="4.446443303945">
        <ele>0.8</ele>
        <time>2020-06-01T10:35:58Z</time>
      </trkpt>
      <trkpt lat="51.213478150675" lon="4.446522848176">
        <ele>0.6</ele>
        <time>2020-06-01T10:36:00Z</time>
      </trkpt>
      <trkpt lat="51.213159889932" lon="4.447233968572">
        <ele>0</ele>
        <time>2020-06-01T10:36:11Z</time>
      </trkpt>
      <trkpt lat="51.212858979722" lon="4.447984567717">
        <ele>0</ele>
        <time>2020-06-01T10:36:23Z</time>
      </trkpt>
      <trkpt lat="51.212833917841" lon="4.448117337013">
        <ele>0</ele>
        <time>2020-06-01T10:36:25Z</time>
      </trkpt>
      <trkpt lat="51.212854285858" lon="4.448258069114">
        <ele>0</ele>
        <time>2020-06-01T10:36:27Z</time>
      </trkpt>
      <trkpt lat="51.212906253638" lon="4.448380277216">
        <ele>0</ele>
        <time>2020-06-01T10:36:29Z</time>
      </trkpt>
      <trkpt lat="51.212976913055" lon="4.448467700433">
        <ele>0</ele>
        <time>2020-06-01T10:36:31Z</time>
      </trkpt>
      <trkpt lat="51.213088224687" lon="4.448698286502">
        <ele>0</ele>
        <time>2020-06-01T10:36:35Z</time>
      </trkpt>
      <trkpt lat="51.213300957309" lon="4.449520802349">
        <ele>0</ele>
        <time>2020-06-01T10:36:48Z</time>
      </trkpt>
      <trkpt lat="51.213462895617" lon="4.450354130847">
        <ele>0</ele>
        <time>2020-06-01T10:37:00Z</time>
      </trkpt>
      <trkpt lat="51.213556102345" lon="4.451224339705">
        <ele>0</ele>
        <time>2020-06-01T10:37:11Z</time>
      </trkpt>
      <trkpt lat="51.213661965742" lon="4.452131596561">
        <ele>0</ele>
        <time>2020-06-01T10:37:24Z</time>
      </trkpt>
      <trkpt lat="51.213686859985" lon="4.452347346667">
        <ele>0</ele>
        <time>2020-06-01T10:37:27Z</time>
      </trkpt>
      <trkpt lat="51.213762380904" lon="4.453242785044">
        <ele>0</ele>
        <time>2020-06-01T10:37:40Z</time>
      </trkpt>
      <trkpt lat="51.213705383984" lon="4.454121627259">
        <ele>0</ele>
        <time>2020-06-01T10:37:52Z</time>
      </trkpt>
      <trkpt lat="51.213665150864" lon="4.455032572151">
        <ele>0</ele>
        <time>2020-06-01T10:38:05Z</time>
      </trkpt>
      <trkpt lat="51.213661211371" lon="4.455163329791">
        <ele>0</ele>
        <time>2020-06-01T10:38:07Z</time>
      </trkpt>
      <trkpt lat="51.213642352096" lon="4.456037059047">
        <ele>0</ele>
        <time>2020-06-01T10:38:20Z</time>
      </trkpt>
      <trkpt lat="51.213728518028" lon="4.456926630094">
        <ele>0</ele>
        <time>2020-06-01T10:38:33Z</time>
      </trkpt>
      <trkpt lat="51.213805715327" lon="4.45723374291">
        <ele>0</ele>
        <time>2020-06-01T10:38:38Z</time>
      </trkpt>
      <trkpt lat="51.21407787562" lon="4.457964225495">
        <ele>0</ele>
        <time>2020-06-01T10:38:52Z</time>
      </trkpt>
      <trkpt lat="51.214018950863" lon="4.458811467947">
        <ele>0</ele>
        <time>2020-06-01T10:39:07Z</time>
      </trkpt>
      <trkpt lat="51.214244004878" lon="4.459617136175">
        <ele>0</ele>
        <time>2020-06-01T10:39:22Z</time>
      </trkpt>
      <trkpt lat="51.214525385261" lon="4.460392378106">
        <ele>0</ele>
        <time>2020-06-01T10:39:34Z</time>
      </trkpt>
      <trkpt lat="51.214861331813" lon="4.46115144297">
        <ele>0</ele>
        <time>2020-06-01T10:39:46Z</time>
      </trkpt>
      <trkpt lat="51.215183196773" lon="4.461864491203">
        <ele>0</ele>
        <time>2020-06-01T10:39:59Z</time>
      </trkpt>
      <trkpt lat="51.215427780615" lon="4.46255122027">
        <ele>0</ele>
        <time>2020-06-01T10:40:10Z</time>
      </trkpt>
      <trkpt lat="51.215381177251" lon="4.462803599279">
        <ele>0</ele>
        <time>2020-06-01T10:40:15Z</time>
      </trkpt>
      <trkpt lat="51.215290065998" lon="4.463007698544">
        <ele>0</ele>
        <time>2020-06-01T10:40:20Z</time>
      </trkpt>
      <trkpt lat="51.215220496228" lon="4.463088416241">
        <ele>0</ele>
        <time>2020-06-01T10:40:22Z</time>
      </trkpt>
      <trkpt lat="51.215130055527" lon="4.463136695985">
        <ele>0</ele>
        <time>2020-06-01T10:40:24Z</time>
      </trkpt>
      <trkpt lat="51.215032154935" lon="4.463190423964">
        <ele>0</ele>
        <time>2020-06-01T10:40:26Z</time>
      </trkpt>
      <trkpt lat="51.214456905138" lon="4.463380441637">
        <ele>0</ele>
        <time>2020-06-01T10:40:37Z</time>
      </trkpt>
      <trkpt lat="51.213888696137" lon="4.463504074662">
        <ele>0</ele>
        <time>2020-06-01T10:40:48Z</time>
      </trkpt>
      <trkpt lat="51.213345884293" lon="4.463625193117">
        <ele>0</ele>
        <time>2020-06-01T10:40:58Z</time>
      </trkpt>
      <trkpt lat="51.212785051364" lon="4.463790819461">
        <ele>0</ele>
        <time>2020-06-01T10:41:09Z</time>
      </trkpt>
      <trkpt lat="51.212221787684" lon="4.463919313988">
        <ele>0.4</ele>
        <time>2020-06-01T10:41:19Z</time>
      </trkpt>
      <trkpt lat="51.211677718555" lon="4.464043617565">
        <ele>0</ele>
        <time>2020-06-01T10:41:30Z</time>
      </trkpt>
      <trkpt lat="51.211598761057" lon="4.464117378285">
        <ele>0</ele>
        <time>2020-06-01T10:41:32Z</time>
      </trkpt>
      <trkpt lat="51.211537573187" lon="4.464218128723">
        <ele>0</ele>
        <time>2020-06-01T10:41:34Z</time>
      </trkpt>
      <trkpt lat="51.211502536845" lon="4.464347293802">
        <ele>0</ele>
        <time>2020-06-01T10:41:36Z</time>
      </trkpt>
      <trkpt lat="51.21137722744" lon="4.465059168569">
        <ele>0</ele>
        <time>2020-06-01T10:41:45Z</time>
      </trkpt>
      <trkpt lat="51.211360631278" lon="4.465666018129">
        <ele>0</ele>
        <time>2020-06-01T10:41:53Z</time>
      </trkpt>
      <trkpt lat="51.211505219053" lon="4.466536981358">
        <ele>0</ele>
        <time>2020-06-01T10:42:04Z</time>
      </trkpt>
      <trkpt lat="51.211527850183" lon="4.467457062521">
        <ele>0</ele>
        <time>2020-06-01T10:42:16Z</time>
      </trkpt>
      <trkpt lat="51.211469679797" lon="4.468337078202">
        <ele>0</ele>
        <time>2020-06-01T10:42:29Z</time>
      </trkpt>
      <trkpt lat="51.211393572145" lon="4.469250286207">
        <ele>0</ele>
        <time>2020-06-01T10:42:42Z</time>
      </trkpt>
      <trkpt lat="51.211512427487" lon="4.470153268294">
        <ele>0</ele>
        <time>2020-06-01T10:42:55Z</time>
      </trkpt>
      <trkpt lat="51.211755754044" lon="4.470934964288">
        <ele>0</ele>
        <time>2020-06-01T10:43:07Z</time>
      </trkpt>
      <trkpt lat="51.212079463022" lon="4.471680618112">
        <ele>0</ele>
        <time>2020-06-01T10:43:18Z</time>
      </trkpt>
      <trkpt lat="51.212617581002" lon="4.472718632608">
        <ele>0</ele>
        <time>2020-06-01T10:43:34Z</time>
      </trkpt>
      <trkpt lat="51.212935171193" lon="4.47350971633">
        <ele>0</ele>
        <time>2020-06-01T10:43:45Z</time>
      </trkpt>
      <trkpt lat="51.213206241839" lon="4.474295351817">
        <ele>0</ele>
        <time>2020-06-01T10:43:55Z</time>
      </trkpt>
      <trkpt lat="51.213412688036" lon="4.47515675968">
        <ele>0</ele>
        <time>2020-06-01T10:44:06Z</time>
      </trkpt>
      <trkpt lat="51.21353556669" lon="4.476032165316">
        <ele>0</ele>
        <time>2020-06-01T10:44:17Z</time>
      </trkpt>
      <trkpt lat="51.213672443117" lon="4.476878318121">
        <ele>0</ele>
        <time>2020-06-01T10:44:28Z</time>
      </trkpt>
      <trkpt lat="51.213738995403" lon="4.477185347118">
        <ele>0</ele>
        <time>2020-06-01T10:44:32Z</time>
      </trkpt>
      <trkpt lat="51.21379959654" lon="4.477305711202">
        <ele>0</ele>
        <time>2020-06-01T10:44:34Z</time>
      </trkpt>
      <trkpt lat="51.214174854203" lon="4.477916751712">
        <ele>0</ele>
        <time>2020-06-01T10:44:46Z</time>
      </trkpt>
      <trkpt lat="51.214627057708" lon="4.478456965167">
        <ele>0</ele>
        <time>2020-06-01T10:44:58Z</time>
      </trkpt>
      <trkpt lat="51.215153441028" lon="4.478810513709">
        <ele>0</ele>
        <time>2020-06-01T10:45:12Z</time>
      </trkpt>
      <trkpt lat="51.215696839605" lon="4.479014529155">
        <ele>0</ele>
        <time>2020-06-01T10:45:25Z</time>
      </trkpt>
      <trkpt lat="51.216089699258" lon="4.479373358294">
        <ele>0</ele>
        <time>2020-06-01T10:45:37Z</time>
      </trkpt>
      <trkpt lat="51.216135548251" lon="4.479959839837">
        <ele>0</ele>
        <time>2020-06-01T10:45:46Z</time>
      </trkpt>
      <trkpt lat="51.216124903238" lon="4.480178942703">
        <ele>0</ele>
        <time>2020-06-01T10:45:48Z</time>
      </trkpt>
      <trkpt lat="51.216137643726" lon="4.48024876393">
        <ele>0</ele>
        <time>2020-06-01T10:45:50Z</time>
      </trkpt>
      <trkpt lat="51.216203357822" lon="4.480338953174">
        <ele>0</ele>
        <time>2020-06-01T10:45:52Z</time>
      </trkpt>
      <trkpt lat="51.216749270969" lon="4.480389831307">
        <ele>0</ele>
        <time>2020-06-01T10:46:04Z</time>
      </trkpt>
      <trkpt lat="51.217144393735" lon="4.480044999941">
        <ele>0</ele>
        <time>2020-06-01T10:46:19Z</time>
      </trkpt>
      <trkpt lat="51.217164845571" lon="4.479164565165">
        <ele>0</ele>
        <time>2020-06-01T10:46:30Z</time>
      </trkpt>
      <trkpt lat="51.217181106457" lon="4.478238449034">
        <ele>0</ele>
        <time>2020-06-01T10:46:42Z</time>
      </trkpt>
      <trkpt lat="51.217190661823" lon="4.477683231978">
        <ele>0</ele>
        <time>2020-06-01T10:46:49Z</time>
      </trkpt>
      <trkpt lat="51.217214214962" lon="4.476956940343">
        <ele>0</ele>
        <time>2020-06-01T10:46:59Z</time>
      </trkpt>
      <trkpt lat="51.217218070636" lon="4.476641864722">
        <ele>0</ele>
        <time>2020-06-01T10:47:03Z</time>
      </trkpt>
      <trkpt lat="51.217291328442" lon="4.475732344753">
        <ele>0</ele>
        <time>2020-06-01T10:47:16Z</time>
      </trkpt>
      <trkpt lat="51.217327119155" lon="4.474814945798">
        <ele>0.4</ele>
        <time>2020-06-01T10:47:29Z</time>
      </trkpt>
      <trkpt lat="51.217372549053" lon="4.474044900645">
        <ele>0.8</ele>
        <time>2020-06-01T10:47:38Z</time>
      </trkpt>
      <trkpt lat="51.217373973976" lon="4.473632427346">
        <ele>0</ele>
        <time>2020-06-01T10:47:43Z</time>
      </trkpt>
      <trkpt lat="51.217404484092" lon="4.473312490223">
        <ele>0</ele>
        <time>2020-06-01T10:47:46Z</time>
      </trkpt>
      <trkpt lat="51.217415715838" lon="4.472663731163">
        <ele>0</ele>
        <time>2020-06-01T10:47:55Z</time>
      </trkpt>
      <trkpt lat="51.217400963694" lon="4.472262908705">
        <ele>0</ele>
        <time>2020-06-01T10:48:00Z</time>
      </trkpt>
      <trkpt lat="51.217469779093" lon="4.471394292408">
        <ele>0</ele>
        <time>2020-06-01T10:48:12Z</time>
      </trkpt>
      <trkpt lat="51.217523255615" lon="4.470536991676">
        <ele>0</ele>
        <time>2020-06-01T10:48:23Z</time>
      </trkpt>
      <trkpt lat="51.217576061585" lon="4.46964482224">
        <ele>0</ele>
        <time>2020-06-01T10:48:34Z</time>
      </trkpt>
      <trkpt lat="51.217576145404" lon="4.469442734631">
        <ele>0</ele>
        <time>2020-06-01T10:48:37Z</time>
      </trkpt>
      <trkpt lat="51.217547479306" lon="4.469150541597">
        <ele>0</ele>
        <time>2020-06-01T10:48:41Z</time>
      </trkpt>
      <trkpt lat="51.217614283049" lon="4.468233394099">
        <ele>0</ele>
        <time>2020-06-01T10:48:51Z</time>
      </trkpt>
      <trkpt lat="51.217639931663" lon="4.467433425563">
        <ele>0</ele>
        <time>2020-06-01T10:49:01Z</time>
      </trkpt>
      <trkpt lat="51.217648816477" lon="4.46693998311">
        <ele>0</ele>
        <time>2020-06-01T10:49:07Z</time>
      </trkpt>
      <trkpt lat="51.217649487029" lon="4.4667815652">
        <ele>0</ele>
        <time>2020-06-01T10:49:09Z</time>
      </trkpt>
      <trkpt lat="51.217710758718" lon="4.466474200927">
        <ele>0</ele>
        <time>2020-06-01T10:49:13Z</time>
      </trkpt>
      <trkpt lat="51.217725427043" lon="4.46556032237">
        <ele>0</ele>
        <time>2020-06-01T10:49:26Z</time>
      </trkpt>
      <trkpt lat="51.21776004429" lon="4.464686844571">
        <ele>0</ele>
        <time>2020-06-01T10:49:38Z</time>
      </trkpt>
      <trkpt lat="51.217863476936" lon="4.463795513325">
        <ele>0</ele>
        <time>2020-06-01T10:49:51Z</time>
      </trkpt>
      <trkpt lat="51.217857693425" lon="4.462910887599">
        <ele>0</ele>
        <time>2020-06-01T10:50:02Z</time>
      </trkpt>
      <trkpt lat="51.217838498874" lon="4.462712655664">
        <ele>0</ele>
        <time>2020-06-01T10:50:04Z</time>
      </trkpt>
      <trkpt lat="51.217825339291" lon="4.462523895276">
        <ele>0</ele>
        <time>2020-06-01T10:50:06Z</time>
      </trkpt>
      <trkpt lat="51.217847886602" lon="4.462302026383">
        <ele>0</ele>
        <time>2020-06-01T10:50:09Z</time>
      </trkpt>
      <trkpt lat="51.217867248791" lon="4.462159534083">
        <ele>0</ele>
        <time>2020-06-01T10:50:11Z</time>
      </trkpt>
      <trkpt lat="51.217870433913" lon="4.461936240267">
        <ele>0</ele>
        <time>2020-06-01T10:50:14Z</time>
      </trkpt>
      <trkpt lat="51.217880576012" lon="4.461665001983">
        <ele>0</ele>
        <time>2020-06-01T10:50:18Z</time>
      </trkpt>
      <trkpt lat="51.217874373406" lon="4.461531562135">
        <ele>0</ele>
        <time>2020-06-01T10:50:20Z</time>
      </trkpt>
      <trkpt lat="51.217996078594" lon="4.461287062112">
        <ele>0</ele>
        <time>2020-06-01T10:50:25Z</time>
      </trkpt>
      <trkpt lat="51.218503937915" lon="4.460982631504">
        <ele>0</ele>
        <time>2020-06-01T10:50:36Z</time>
      </trkpt>
      <trkpt lat="51.218964690958" lon="4.460653893386">
        <ele>0</ele>
        <time>2020-06-01T10:50:48Z</time>
      </trkpt>
      <trkpt lat="51.219489649355" lon="4.460273438945">
        <ele>0</ele>
        <time>2020-06-01T10:51:00Z</time>
      </trkpt>
      <trkpt lat="51.219957191737" lon="4.459834730299">
        <ele>4</ele>
        <time>2020-06-01T10:51:11Z</time>
      </trkpt>
      <trkpt lat="51.220352146865" lon="4.459336091068">
        <ele>6.2</ele>
        <time>2020-06-01T10:51:24Z</time>
      </trkpt>
      <trkpt lat="51.220388775768" lon="4.45885899332">
        <ele>3.2</ele>
        <time>2020-06-01T10:51:31Z</time>
      </trkpt>
      <trkpt lat="51.220390703605" lon="4.457970847196">
        <ele>0</ele>
        <time>2020-06-01T10:51:43Z</time>
      </trkpt>
      <trkpt lat="51.220441581738" lon="4.457076247009">
        <ele>0</ele>
        <time>2020-06-01T10:51:54Z</time>
      </trkpt>
      <trkpt lat="51.220407215948" lon="4.456834680651">
        <ele>0</ele>
        <time>2020-06-01T10:51:57Z</time>
      </trkpt>
      <trkpt lat="51.220283163828" lon="4.456089865017">
        <ele>0</ele>
        <time>2020-06-01T10:52:06Z</time>
      </trkpt>
      <trkpt lat="51.220167828884" lon="4.455791301739">
        <ele>0</ele>
        <time>2020-06-01T10:52:10Z</time>
      </trkpt>
      <trkpt lat="51.219790643384" lon="4.455092251279">
        <ele>0</ele>
        <time>2020-06-01T10:52:19Z</time>
      </trkpt>
      <trkpt lat="51.219656281527" lon="4.454793436544">
        <ele>0</ele>
        <time>2020-06-01T10:52:24Z</time>
      </trkpt>
      <trkpt lat="51.21949258302" lon="4.454072425506">
        <ele>0</ele>
        <time>2020-06-01T10:52:33Z</time>
      </trkpt>
      <trkpt lat="51.219431478969" lon="4.453941835504">
        <ele>0</ele>
        <time>2020-06-01T10:52:35Z</time>
      </trkpt>
      <trkpt lat="51.219291585058" lon="4.453556100466">
        <ele>0</ele>
        <time>2020-06-01T10:52:42Z</time>
      </trkpt>
      <trkpt lat="51.219327962504" lon="4.453511676396">
        <ele>0</ele>
        <time>2020-06-01T10:52:44Z</time>
      </trkpt>
      <trkpt lat="51.219376326067" lon="4.45353983958">
        <ele>0</ele>
        <time>2020-06-01T10:52:46Z</time>
      </trkpt>
      <trkpt lat="51.219484704034" lon="4.453707645218">
        <ele>0</ele>
        <time>2020-06-01T10:52:52Z</time>
      </trkpt>
      <trkpt lat="51.219392084039" lon="4.453438586228">
        <ele>0</ele>
        <time>2020-06-01T10:52:57Z</time>
      </trkpt>
      <trkpt lat="51.219346905598" lon="4.453298273222">
        <ele>0</ele>
        <time>2020-06-01T10:52:59Z</time>
      </trkpt>
      <trkpt lat="51.219022777525" lon="4.452547254982">
        <ele>0</ele>
        <time>2020-06-01T10:53:11Z</time>
      </trkpt>
      <trkpt lat="51.218986819174" lon="4.452421191206">
        <ele>0</ele>
        <time>2020-06-01T10:53:13Z</time>
      </trkpt>
      <trkpt lat="51.218996206902" lon="4.452286242616">
        <ele>0</ele>
        <time>2020-06-01T10:53:15Z</time>
      </trkpt>
      <trkpt lat="51.219057478591" lon="4.452156658442">
        <ele>0</ele>
        <time>2020-06-01T10:53:17Z</time>
      </trkpt>
      <trkpt lat="51.219153199889" lon="4.452063703171">
        <ele>0</ele>
        <time>2020-06-01T10:53:19Z</time>
      </trkpt>
      <trkpt lat="51.219728868781" lon="4.452008214993">
        <ele>0</ele>
        <time>2020-06-01T10:53:31Z</time>
      </trkpt>
      <trkpt lat="51.220281152172" lon="4.451968820063">
        <ele>0</ele>
        <time>2020-06-01T10:53:43Z</time>
      </trkpt>
      <trkpt lat="51.220830753355" lon="4.451824567564">
        <ele>0</ele>
        <time>2020-06-01T10:53:54Z</time>
      </trkpt>
      <trkpt lat="51.221386557144" lon="4.451687523499">
        <ele>0</ele>
        <time>2020-06-01T10:54:06Z</time>
      </trkpt>
      <trkpt lat="51.221897685406" lon="4.451415949939">
        <ele>0</ele>
        <time>2020-06-01T10:54:15Z</time>
      </trkpt>
      <trkpt lat="51.222111842951" lon="4.451249401586">
        <ele>0</ele>
        <time>2020-06-01T10:54:19Z</time>
      </trkpt>
      <trkpt lat="51.22239355861" lon="4.451132474081">
        <ele>0</ele>
        <time>2020-06-01T10:54:24Z</time>
      </trkpt>
      <trkpt lat="51.22280175714" lon="4.451083775242">
        <ele>0</ele>
        <time>2020-06-01T10:54:31Z</time>
      </trkpt>
      <trkpt lat="51.222914326057" lon="4.451098611205">
        <ele>0</ele>
        <time>2020-06-01T10:54:33Z</time>
      </trkpt>
      <trkpt lat="51.223448672182" lon="4.451275385476">
        <ele>0</ele>
        <time>2020-06-01T10:54:43Z</time>
      </trkpt>
      <trkpt lat="51.22393582821" lon="4.451373369887">
        <ele>0</ele>
        <time>2020-06-01T10:54:52Z</time>
      </trkpt>
      <trkpt lat="51.224045798738" lon="4.451324754867">
        <ele>0</ele>
        <time>2020-06-01T10:54:54Z</time>
      </trkpt>
      <trkpt lat="51.224151494497" lon="4.451229117388">
        <ele>0</ele>
        <time>2020-06-01T10:54:56Z</time>
      </trkpt>
      <trkpt lat="51.224586515107" lon="4.450608437693">
        <ele>0</ele>
        <time>2020-06-01T10:55:06Z</time>
      </trkpt>
      <trkpt lat="51.225003766089" lon="4.449980549564">
        <ele>0</ele>
        <time>2020-06-01T10:55:16Z</time>
      </trkpt>
      <trkpt lat="51.225275591106" lon="4.449739234663">
        <ele>0</ele>
        <time>2020-06-01T10:55:23Z</time>
      </trkpt>
      <trkpt lat="51.225362679047" lon="4.449709059823">
        <ele>0</ele>
        <time>2020-06-01T10:55:25Z</time>
      </trkpt>
      <trkpt lat="51.225909933298" lon="4.449547792067">
        <ele>0</ele>
        <time>2020-06-01T10:55:37Z</time>
      </trkpt>
      <trkpt lat="51.226040355662" lon="4.449416950608">
        <ele>0</ele>
        <time>2020-06-01T10:55:40Z</time>
      </trkpt>
      <trkpt lat="51.226255854311" lon="4.448966255845">
        <ele>0</ele>
        <time>2020-06-01T10:55:46Z</time>
      </trkpt>
      <trkpt lat="51.226512340451" lon="4.448190343362">
        <ele>0</ele>
        <time>2020-06-01T10:55:58Z</time>
      </trkpt>
      <trkpt lat="51.226907463217" lon="4.447600089964">
        <ele>0</ele>
        <time>2020-06-01T10:56:08Z</time>
      </trkpt>
      <trkpt lat="51.227335694488" lon="4.44697848826">
        <ele>0</ele>
        <time>2020-06-01T10:56:19Z</time>
      </trkpt>
      <trkpt lat="51.227744647389" lon="4.446384379188">
        <ele>0</ele>
        <time>2020-06-01T10:56:30Z</time>
      </trkpt>
      <trkpt lat="51.228110265867" lon="4.445836622023">
        <ele>0</ele>
        <time>2020-06-01T10:56:40Z</time>
      </trkpt>
      <trkpt lat="51.228281927179" lon="4.445409312761">
        <ele>0</ele>
        <time>2020-06-01T10:56:46Z</time>
      </trkpt>
      <trkpt lat="51.228402458901" lon="4.445069678173">
        <ele>0</ele>
        <time>2020-06-01T10:56:51Z</time>
      </trkpt>
      <trkpt lat="51.228489211566" lon="4.444869015487">
        <ele>0</ele>
        <time>2020-06-01T10:56:54Z</time>
      </trkpt>
      <trkpt lat="51.228601026112" lon="4.444607081112">
        <ele>0</ele>
        <time>2020-06-01T10:56:58Z</time>
      </trkpt>
      <trkpt lat="51.229038812749" lon="4.444034178247">
        <ele>0</ele>
        <time>2020-06-01T10:57:11Z</time>
      </trkpt>
      <trkpt lat="51.229180802135" lon="4.443905013168">
        <ele>0</ele>
        <time>2020-06-01T10:57:15Z</time>
      </trkpt>
      <trkpt lat="51.229266548972" lon="4.443865031505">
        <ele>0</ele>
        <time>2020-06-01T10:57:17Z</time>
      </trkpt>
      <trkpt lat="51.229448771478" lon="4.443826474765">
        <ele>0</ele>
        <time>2020-06-01T10:57:21Z</time>
      </trkpt>
      <trkpt lat="51.229521358732" lon="4.443910042308">
        <ele>0</ele>
        <time>2020-06-01T10:57:23Z</time>
      </trkpt>
      <trkpt lat="51.229550443925" lon="4.444047840744">
        <ele>0</ele>
        <time>2020-06-01T10:57:25Z</time>
      </trkpt>
      <trkpt lat="51.229616074202" lon="4.444232829277">
        <ele>0</ele>
        <time>2020-06-01T10:57:28Z</time>
      </trkpt>
      <trkpt lat="51.229732163517" lon="4.444685032782">
        <ele>0</ele>
        <time>2020-06-01T10:57:35Z</time>
      </trkpt>
      <trkpt lat="51.229632251269" lon="4.445084095041">
        <ele>0</ele>
        <time>2020-06-01T10:57:42Z</time>
      </trkpt>
      <trkpt lat="51.229219610332" lon="4.445708295134">
        <ele>0</ele>
        <time>2020-06-01T10:57:54Z</time>
      </trkpt>
      <trkpt lat="51.228818117322" lon="4.446309864097">
        <ele>0</ele>
        <time>2020-06-01T10:58:06Z</time>
      </trkpt>
      <trkpt lat="51.22842768842" lon="4.446904140807">
        <ele>0</ele>
        <time>2020-06-01T10:58:17Z</time>
      </trkpt>
      <trkpt lat="51.228142117087" lon="4.447242266653">
        <ele>0.8</ele>
        <time>2020-06-01T10:58:24Z</time>
      </trkpt>
      <trkpt lat="51.227761411189" lon="4.447875603017">
        <ele>0</ele>
        <time>2020-06-01T10:58:38Z</time>
      </trkpt>
      <trkpt lat="51.227368300079" lon="4.448460324361">
        <ele>0</ele>
        <time>2020-06-01T10:58:51Z</time>
      </trkpt>
      <trkpt lat="51.227079124529" lon="4.448836001119">
        <ele>0</ele>
        <time>2020-06-01T10:58:59Z</time>
      </trkpt>
      <trkpt lat="51.227039813418" lon="4.44895577847">
        <ele>0</ele>
        <time>2020-06-01T10:59:01Z</time>
      </trkpt>
      <trkpt lat="51.227000753764" lon="4.449080584961">
        <ele>0</ele>
        <time>2020-06-01T10:59:03Z</time>
      </trkpt>
      <trkpt lat="51.22685105303" lon="4.449199356484">
        <ele>0</ele>
        <time>2020-06-01T10:59:07Z</time>
      </trkpt>
      <trkpt lat="51.226653910742" lon="4.44940672469">
        <ele>0</ele>
        <time>2020-06-01T10:59:12Z</time>
      </trkpt>
      <trkpt lat="51.226254513207" lon="4.449989769654">
        <ele>0</ele>
        <time>2020-06-01T10:59:24Z</time>
      </trkpt>
      <trkpt lat="51.225843297193" lon="4.450635259773">
        <ele>0</ele>
        <time>2020-06-01T10:59:37Z</time>
      </trkpt>
      <trkpt lat="51.225711533725" lon="4.450813710424">
        <ele>0</ele>
        <time>2020-06-01T10:59:41Z</time>
      </trkpt>
      <trkpt lat="51.225699128513" lon="4.451071705306">
        <ele>0</ele>
        <time>2020-06-01T10:59:46Z</time>
      </trkpt>
      <trkpt lat="51.226078660945" lon="4.45170420348">
        <ele>0</ele>
        <time>2020-06-01T10:59:59Z</time>
      </trkpt>
      <trkpt lat="51.226138256254" lon="4.451919199215">
        <ele>0</ele>
        <time>2020-06-01T11:00:02Z</time>
      </trkpt>
      <trkpt lat="51.226111601812" lon="4.452044592439">
        <ele>0</ele>
        <time>2020-06-01T11:00:05Z</time>
      </trkpt>
      <trkpt lat="51.225932312971" lon="4.452890661425">
        <ele>0</ele>
        <time>2020-06-01T11:00:17Z</time>
      </trkpt>
      <trkpt lat="51.225906664357" lon="4.453244461424">
        <ele>0</ele>
        <time>2020-06-01T11:00:22Z</time>
      </trkpt>
      <trkpt lat="51.225836424035" lon="4.453321323447">
        <ele>0</ele>
        <time>2020-06-01T11:00:24Z</time>
      </trkpt>
      <trkpt lat="51.225284392101" lon="4.453321658723">
        <ele>0</ele>
        <time>2020-06-01T11:00:37Z</time>
      </trkpt>
      <trkpt lat="51.224881725625" lon="4.453423666446">
        <ele>0</ele>
        <time>2020-06-01T11:00:49Z</time>
      </trkpt>
      <trkpt lat="51.224829925483" lon="4.454298150073">
        <ele>0</ele>
        <time>2020-06-01T11:01:03Z</time>
      </trkpt>
      <trkpt lat="51.224324999827" lon="4.454508535763">
        <ele>0</ele>
        <time>2020-06-01T11:01:17Z</time>
      </trkpt>
      <trkpt lat="51.223766765287" lon="4.454565365045">
        <ele>1.4</ele>
        <time>2020-06-01T11:01:27Z</time>
      </trkpt>
      <trkpt lat="51.223193694784" lon="4.45455991681">
        <ele>2.6</ele>
        <time>2020-06-01T11:01:38Z</time>
      </trkpt>
      <trkpt lat="51.222621965385" lon="4.454414826121">
        <ele>1.8</ele>
        <time>2020-06-01T11:01:52Z</time>
      </trkpt>
      <trkpt lat="51.222070604003" lon="4.454378364856">
        <ele>0.6</ele>
        <time>2020-06-01T11:02:04Z</time>
      </trkpt>
      <trkpt lat="51.221559978655" lon="4.45439563157">
        <ele>0.6</ele>
        <time>2020-06-01T11:02:17Z</time>
      </trkpt>
      <trkpt lat="51.221557631723" lon="4.454458914915">
        <ele>0.6</ele>
        <time>2020-06-01T11:02:19Z</time>
      </trkpt>
      <trkpt lat="51.222148974768" lon="4.454454556327">
        <ele>3.4</ele>
        <time>2020-06-01T11:02:31Z</time>
      </trkpt>
      <trkpt lat="51.222727577325" lon="4.45443167374">
        <ele>9.6</ele>
        <time>2020-06-01T11:02:42Z</time>
      </trkpt>
      <trkpt lat="51.2232661144" lon="4.454476433086">
        <ele>4.4</ele>
        <time>2020-06-01T11:02:53Z</time>
      </trkpt>
      <trkpt lat="51.223822504922" lon="4.454479282932">
        <ele>10.4</ele>
        <time>2020-06-01T11:03:05Z</time>
      </trkpt>
      <trkpt lat="51.224367998974" lon="4.454432344292">
        <ele>19.6</ele>
        <time>2020-06-01T11:03:20Z</time>
      </trkpt>
      <trkpt lat="51.224923718944" lon="4.4543512075">
        <ele>7.6</ele>
        <time>2020-06-01T11:03:38Z</time>
      </trkpt>
      <trkpt lat="51.22503553349" lon="4.45440066071">
        <ele>7</ele>
        <time>2020-06-01T11:03:41Z</time>
      </trkpt>
      <trkpt lat="51.225193699943" lon="4.454448772816">
        <ele>5</ele>
        <time>2020-06-01T11:03:45Z</time>
      </trkpt>
      <trkpt lat="51.22565579409" lon="4.454476433086">
        <ele>0</ele>
        <time>2020-06-01T11:03:55Z</time>
      </trkpt>
      <trkpt lat="51.226143788308" lon="4.454470901032">
        <ele>0</ele>
        <time>2020-06-01T11:04:06Z</time>
      </trkpt>
      <trkpt lat="51.226240766891" lon="4.454488586841">
        <ele>0</ele>
        <time>2020-06-01T11:04:08Z</time>
      </trkpt>
      <trkpt lat="51.226792882644" lon="4.454449443368">
        <ele>0</ele>
        <time>2020-06-01T11:04:21Z</time>
      </trkpt>
      <trkpt lat="51.226889945046" lon="4.454438798355">
        <ele>0</ele>
        <time>2020-06-01T11:04:24Z</time>
      </trkpt>
      <trkpt lat="51.227421692782" lon="4.454564359217">
        <ele>0</ele>
        <time>2020-06-01T11:04:40Z</time>
      </trkpt>
      <trkpt lat="51.227971461603" lon="4.454572322022">
        <ele>0</ele>
        <time>2020-06-01T11:04:52Z</time>
      </trkpt>
      <trkpt lat="51.228126610572" lon="4.454580284827">
        <ele>0</ele>
        <time>2020-06-01T11:04:55Z</time>
      </trkpt>
      <trkpt lat="51.228285028482" lon="4.454582380302">
        <ele>0</ele>
        <time>2020-06-01T11:04:58Z</time>
      </trkpt>
      <trkpt lat="51.228481584037" lon="4.454584391958">
        <ele>0</ele>
        <time>2020-06-01T11:05:02Z</time>
      </trkpt>
      <trkpt lat="51.2290160978" lon="4.454729063552">
        <ele>0</ele>
        <time>2020-06-01T11:05:14Z</time>
      </trkpt>
      <trkpt lat="51.229425469796" lon="4.454855211147">
        <ele>0</ele>
        <time>2020-06-01T11:05:23Z</time>
      </trkpt>
      <trkpt lat="51.229986386544" lon="4.455108344527">
        <ele>0</ele>
        <time>2020-06-01T11:05:35Z</time>
      </trkpt>
      <trkpt lat="51.230543950532" lon="4.455477399584">
        <ele>0</ele>
        <time>2020-06-01T11:05:46Z</time>
      </trkpt>
      <trkpt lat="51.231051642215" lon="4.455924322492">
        <ele>0</ele>
        <time>2020-06-01T11:06:00Z</time>
      </trkpt>
      <trkpt lat="51.231282982655" lon="4.455795325051">
        <ele>0</ele>
        <time>2020-06-01T11:06:05Z</time>
      </trkpt>
      <trkpt lat="51.23126328519" lon="4.455485446208">
        <ele>0</ele>
        <time>2020-06-01T11:06:11Z</time>
      </trkpt>
      <trkpt lat="51.231111237524" lon="4.45465463228">
        <ele>0</ele>
        <time>2020-06-01T11:06:21Z</time>
      </trkpt>
      <trkpt lat="51.230947790474" lon="4.453777382626">
        <ele>0</ele>
        <time>2020-06-01T11:06:32Z</time>
      </trkpt>
      <trkpt lat="51.230778727551" lon="4.45289024233">
        <ele>0</ele>
        <time>2020-06-01T11:06:43Z</time>
      </trkpt>
      <trkpt lat="51.230611927741" lon="4.452022799499">
        <ele>0</ele>
        <time>2020-06-01T11:06:54Z</time>
      </trkpt>
      <trkpt lat="51.230477733522" lon="4.451122248163">
        <ele>0</ele>
        <time>2020-06-01T11:07:05Z</time>
      </trkpt>
      <trkpt lat="51.230405397725" lon="4.450620926724">
        <ele>0</ele>
        <time>2020-06-01T11:07:12Z</time>
      </trkpt>
      <trkpt lat="51.230266761099" lon="4.449996307536">
        <ele>0</ele>
        <time>2020-06-01T11:07:21Z</time>
      </trkpt>
      <trkpt lat="51.230241950675" lon="4.44986270005">
        <ele>0</ele>
        <time>2020-06-01T11:07:23Z</time>
      </trkpt>
      <trkpt lat="51.230019997963" lon="4.449023085127">
        <ele>0</ele>
        <time>2020-06-01T11:07:35Z</time>
      </trkpt>
      <trkpt lat="51.229840625303" lon="4.448156899581">
        <ele>0</ele>
        <time>2020-06-01T11:07:47Z</time>
      </trkpt>
      <trkpt lat="51.229724955083" lon="4.44765742216">
        <ele>0</ele>
        <time>2020-06-01T11:07:55Z</time>
      </trkpt>
      <trkpt lat="51.229552874676" lon="4.446862315126">
        <ele>0</ele>
        <time>2020-06-01T11:08:07Z</time>
      </trkpt>
      <trkpt lat="51.22956259768" lon="4.446728875278">
        <ele>0</ele>
        <time>2020-06-01T11:08:09Z</time>
      </trkpt>
      <trkpt lat="51.229615152193" lon="4.446619910578">
        <ele>0</ele>
        <time>2020-06-01T11:08:11Z</time>
      </trkpt>
      <trkpt lat="51.230063248567" lon="4.445982383264">
        <ele>0</ele>
        <time>2020-06-01T11:08:22Z</time>
      </trkpt>
      <trkpt lat="51.230085125326" lon="4.445924464335">
        <ele>0</ele>
        <time>2020-06-01T11:08:24Z</time>
      </trkpt>
      <trkpt lat="51.230091411751" lon="4.445787587908">
        <ele>0</ele>
        <time>2020-06-01T11:08:26Z</time>
      </trkpt>
      <trkpt lat="51.230051513907" lon="4.44564828073">
        <ele>0</ele>
        <time>2020-06-01T11:08:28Z</time>
      </trkpt>
      <trkpt lat="51.22984171495" lon="4.445005640457">
        <ele>0</ele>
        <time>2020-06-01T11:08:37Z</time>
      </trkpt>
      <trkpt lat="51.229775917035" lon="4.444963647138">
        <ele>0</ele>
        <time>2020-06-01T11:08:39Z</time>
      </trkpt>
      <trkpt lat="51.229338717131" lon="4.4455334487">
        <ele>0</ele>
        <time>2020-06-01T11:08:52Z</time>
      </trkpt>
      <trkpt lat="51.228909396213" lon="4.446084307168">
        <ele>3.4</ele>
        <time>2020-06-01T11:09:04Z</time>
      </trkpt>
      <trkpt lat="51.228482841322" lon="4.4466901509">
        <ele>6</ele>
        <time>2020-06-01T11:09:16Z</time>
      </trkpt>
      <trkpt lat="51.228295505857" lon="4.447182587525">
        <ele>3.8</ele>
        <time>2020-06-01T11:09:25Z</time>
      </trkpt>
      <trkpt lat="51.228348395646" lon="4.447310076224">
        <ele>3.4</ele>
        <time>2020-06-01T11:09:27Z</time>
      </trkpt>
      <trkpt lat="51.228458869088" lon="4.447480480251">
        <ele>2.4</ele>
        <time>2020-06-01T11:09:30Z</time>
      </trkpt>
      <trkpt lat="51.228529779962" lon="4.447595312281">
        <ele>1.6</ele>
        <time>2020-06-01T11:09:32Z</time>
      </trkpt>
      <trkpt lat="51.228721641653" lon="4.448040726447">
        <ele>1</ele>
        <time>2020-06-01T11:09:41Z</time>
      </trkpt>
      <trkpt lat="51.228312940209" lon="4.448620753927">
        <ele>1</ele>
        <time>2020-06-01T11:09:54Z</time>
      </trkpt>
      <trkpt lat="51.228276227487" lon="4.448665429454">
        <ele>1</ele>
        <time>2020-06-01T11:09:55Z</time>
      </trkpt>
      <trkpt lat="51.227868028957" lon="4.449288875176">
        <ele>0.4</ele>
        <time>2020-06-01T11:10:10Z</time>
      </trkpt>
      <trkpt lat="51.227832992615" lon="4.449320055844">
        <ele>2</ele>
        <time>2020-06-01T11:10:11Z</time>
      </trkpt>
      <trkpt lat="51.227342316189" lon="4.449740491948">
        <ele>3</ele>
        <time>2020-06-01T11:10:25Z</time>
      </trkpt>
      <trkpt lat="51.227027156749" lon="4.450017932838">
        <ele>0</ele>
        <time>2020-06-01T11:10:34Z</time>
      </trkpt>
      <trkpt lat="51.22700108904" lon="4.449961271194">
        <ele>0</ele>
        <time>2020-06-01T11:10:36Z</time>
      </trkpt>
      <trkpt lat="51.227013326614" lon="4.44963471237">
        <ele>0</ele>
        <time>2020-06-01T11:10:42Z</time>
      </trkpt>
      <trkpt lat="51.227029419862" lon="4.449355259824">
        <ele>0</ele>
        <time>2020-06-01T11:10:46Z</time>
      </trkpt>
      <trkpt lat="51.227069988258" lon="4.449197931561">
        <ele>0</ele>
        <time>2020-06-01T11:10:48Z</time>
      </trkpt>
      <trkpt lat="51.227148107566" lon="4.448961897257">
        <ele>0</ele>
        <time>2020-06-01T11:10:51Z</time>
      </trkpt>
      <trkpt lat="51.227536608631" lon="4.448273156534">
        <ele>0</ele>
        <time>2020-06-01T11:11:03Z</time>
      </trkpt>
      <trkpt lat="51.227939358926" lon="4.447609226235">
        <ele>0</ele>
        <time>2020-06-01T11:11:16Z</time>
      </trkpt>
      <trkpt lat="51.228326099792" lon="4.446965328677">
        <ele>2.8</ele>
        <time>2020-06-01T11:11:29Z</time>
      </trkpt>
      <trkpt lat="51.228746535896" lon="4.446346241543">
        <ele>7.4</ele>
        <time>2020-06-01T11:11:41Z</time>
      </trkpt>
      <trkpt lat="51.229134198771" lon="4.445734949576">
        <ele>10</ele>
        <time>2020-06-01T11:11:53Z</time>
      </trkpt>
      <trkpt lat="51.229555305427" lon="4.445136062821">
        <ele>11</ele>
        <time>2020-06-01T11:12:06Z</time>
      </trkpt>
      <trkpt lat="51.229810031368" lon="4.445013519443">
        <ele>7.6</ele>
        <time>2020-06-01T11:12:13Z</time>
      </trkpt>
      <trkpt lat="51.230047993509" lon="4.445842992267">
        <ele>1.8</ele>
        <time>2020-06-01T11:12:27Z</time>
      </trkpt>
      <trkpt lat="51.230271119687" lon="4.446622844243">
        <ele>0</ele>
        <time>2020-06-01T11:12:43Z</time>
      </trkpt>
      <trkpt lat="51.230509165647" lon="4.44744284552">
        <ele>0</ele>
        <time>2020-06-01T11:12:58Z</time>
      </trkpt>
      <trkpt lat="51.230729190522" lon="4.448261086598">
        <ele>0</ele>
        <time>2020-06-01T11:13:13Z</time>
      </trkpt>
      <trkpt lat="51.230932283959" lon="4.449118471149">
        <ele>0</ele>
        <time>2020-06-01T11:13:24Z</time>
      </trkpt>
      <trkpt lat="51.230976540391" lon="4.44934134587">
        <ele>0</ele>
        <time>2020-06-01T11:13:27Z</time>
      </trkpt>
      <trkpt lat="51.231017527882" lon="4.449474785718">
        <ele>0</ele>
        <time>2020-06-01T11:13:29Z</time>
      </trkpt>
      <trkpt lat="51.231166725702" lon="4.450299564678">
        <ele>0</ele>
        <time>2020-06-01T11:13:41Z</time>
      </trkpt>
      <trkpt lat="51.231054659699" lon="4.450545573443">
        <ele>0</ele>
        <time>2020-06-01T11:13:46Z</time>
      </trkpt>
      <trkpt lat="51.230714941292" lon="4.450663506776">
        <ele>0</ele>
        <time>2020-06-01T11:13:55Z</time>
      </trkpt>
      <trkpt lat="51.230161568254" lon="4.450842125065">
        <ele>0</ele>
        <time>2020-06-01T11:14:07Z</time>
      </trkpt>
      <trkpt lat="51.229689583465" lon="4.450941618218">
        <ele>0</ele>
        <time>2020-06-01T11:14:20Z</time>
      </trkpt>
      <trkpt lat="51.229644656481" lon="4.450831899147">
        <ele>0</ele>
        <time>2020-06-01T11:14:22Z</time>
      </trkpt>
      <trkpt lat="51.229514737031" lon="4.449987338903">
        <ele>0</ele>
        <time>2020-06-01T11:14:34Z</time>
      </trkpt>
      <trkpt lat="51.229386661599" lon="4.449153172215">
        <ele>0</ele>
        <time>2020-06-01T11:14:48Z</time>
      </trkpt>
      <trkpt lat="51.229239391616" lon="4.448659562124">
        <ele>0</ele>
        <time>2020-06-01T11:14:57Z</time>
      </trkpt>
      <trkpt lat="51.228833204742" lon="4.448014072005">
        <ele>0</ele>
        <time>2020-06-01T11:15:10Z</time>
      </trkpt>
      <trkpt lat="51.228485355892" lon="4.447344525833">
        <ele>0</ele>
        <time>2020-06-01T11:15:23Z</time>
      </trkpt>
      <trkpt lat="51.228269689605" lon="4.447123076035">
        <ele>0</ele>
        <time>2020-06-01T11:15:30Z</time>
      </trkpt>
      <trkpt lat="51.227853025356" lon="4.447691955588">
        <ele>1.2</ele>
        <time>2020-06-01T11:15:43Z</time>
      </trkpt>
      <trkpt lat="51.227429739406" lon="4.448227223722">
        <ele>8</ele>
        <time>2020-06-01T11:15:58Z</time>
      </trkpt>
      <trkpt lat="51.227459998065" lon="4.448177435236">
        <ele>7.6</ele>
        <time>2020-06-01T11:16:01Z</time>
      </trkpt>
      <trkpt lat="51.227844056723" lon="4.447628756062">
        <ele>11.8</ele>
        <time>2020-06-01T11:16:14Z</time>
      </trkpt>
      <trkpt lat="51.228257200574" lon="4.4470589545">
        <ele>9.4</ele>
        <time>2020-06-01T11:16:27Z</time>
      </trkpt>
      <trkpt lat="51.228374379536" lon="4.447179989136">
        <ele>8.4</ele>
        <time>2020-06-01T11:16:30Z</time>
      </trkpt>
      <trkpt lat="51.228725078232" lon="4.447841153408">
        <ele>5.6</ele>
        <time>2020-06-01T11:16:43Z</time>
      </trkpt>
      <trkpt lat="51.229064126087" lon="4.448519500575">
        <ele>2.8</ele>
        <time>2020-06-01T11:17:01Z</time>
      </trkpt>
      <trkpt lat="51.229059516042" lon="4.448590662906">
        <ele>2</ele>
        <time>2020-06-01T11:17:04Z</time>
      </trkpt>
    </trkseg>
  </trk>
</gpx>